Time;durP1;ratioP1;P1;durP2;ratioP2;P2;SDS_P1;SDS_P2;PMS_P1;PMS_P2;Temp;Humidity;BMP_temperature;BMP_pressure;BME280_temperature;BME280_humidity;BME280_pressure;Samples;Min_cycle;Max_cycle;Signal;HPM_P1;HPM_P2
2021/01/13 00:00:27;;;;;;;16.15;5.40;;;2.10;99.90;;;;;;4952194;28;20191;-75
2021/01/13 00:02:53;;;;;;;20.45;5.25;;;2.10;99.90;;;;;;4972370;28;20274;-75
2021/01/13 00:05:22;;;;;;;8.15;5.22;;;2.20;99.90;;;;;;4951224;29;20566;-74
2021/01/13 00:07:51;;;;;;;13.10;5.15;;;2.20;99.90;;;;;;4949262;28;20216;-75
2021/01/13 00:10:19;;;;;;;8.93;5.03;;;2.10;99.90;;;;;;4970596;28;20422;-75
2021/01/13 00:12:45;;;;;;;13.88;4.93;;;2.20;99.90;;;;;;4954868;28;20187;-75
2021/01/13 00:15:11;;;;;;;12.18;5.50;;;2.10;99.90;;;;;;4956094;28;20172;-75
2021/01/13 00:17:45;;;;;;;7.78;4.63;;;2.20;99.90;;;;;;4955013;28;20289;-75
2021/01/13 00:20:11;;;;;;;11.80;4.35;;;2.10;99.90;;;;;;4955006;29;20634;-75
2021/01/13 00:22:37;;;;;;;5.93;3.95;;;2.10;99.90;;;;;;4939058;29;20219;-75
2021/01/13 00:25:04;;;;;;;6.60;4.50;;;1.80;99.90;;;;;;4941252;28;20247;-75
2021/01/13 00:27:36;;;;;;;8.60;4.55;;;2.00;99.90;;;;;;4942920;28;20200;-75
2021/01/13 00:30:04;;;;;;;6.60;4.47;;;2.00;99.90;;;;;;4964544;28;20183;-75
2021/01/13 00:32:33;;;;;;;13.80;4.10;;;1.80;99.90;;;;;;4968749;28;20684;-75
2021/01/13 00:35:04;;;;;;;13.95;4.95;;;1.30;99.90;;;;;;4957336;28;20176;-75
2021/01/13 00:37:30;;;;;;;9.43;4.30;;;1.70;99.90;;;;;;4974942;28;20210;-74
2021/01/13 00:39:56;;;;;;;12.15;4.75;;;1.90;99.90;;;;;;4966764;28;20239;-75
2021/01/13 00:42:24;;;;;;;10.38;5.38;;;1.70;99.90;;;;;;4954176;29;20180;-75
2021/01/13 00:44:50;;;;;;;9.93;6.00;;;1.70;99.90;;;;;;4938165;29;20191;-75
2021/01/13 00:47:16;;;;;;;14.32;5.80;;;1.90;99.90;;;;;;4953714;28;20475;-75
2021/01/13 00:49:42;;;;;;;9.07;5.77;;;1.80;99.90;;;;;;4955162;28;20581;-75
2021/01/13 00:52:11;;;;;;;13.15;5.47;;;1.70;99.90;;;;;;4938295;29;20424;-75
2021/01/13 00:54:39;;;;;;;9.60;5.85;;;1.90;99.90;;;;;;4950900;28;20211;-75
2021/01/13 00:57:06;;;;;;;13.57;5.00;;;1.90;99.90;;;;;;4958306;28;20183;-75
2021/01/13 00:59:35;;;;;;;17.05;5.85;;;1.70;99.90;;;;;;4961927;28;20273;-75
2021/01/13 01:02:04;;;;;;;14.60;6.28;;;1.80;99.90;;;;;;4978052;28;20176;-75
2021/01/13 01:04:32;;;;;;;17.50;6.28;;;1.80;99.90;;;;;;4938256;29;20270;-75
2021/01/13 01:07:02;;;;;;;18.42;5.68;;;1.90;99.90;;;;;;4955399;28;20542;-75
2021/01/13 01:09:28;;;;;;;10.30;6.00;;;1.90;99.90;;;;;;4955177;28;20222;-75
2021/01/13 01:11:54;;;;;;;10.57;5.15;;;1.90;99.90;;;;;;4953899;29;20718;-75
2021/01/13 01:14:23;;;;;;;13.37;5.90;;;1.90;99.90;;;;;;4954744;28;20271;-75
2021/01/13 01:16:49;;;;;;;8.00;5.72;;;1.60;99.90;;;;;;4954992;28;20419;-75
2021/01/13 01:19:17;;;;;;;9.50;5.77;;;1.70;99.90;;;;;;4921863;29;20180;-75
2021/01/13 01:21:45;;;;;;;15.27;6.28;;;1.10;99.90;;;;;;4954967;28;20439;-75
2021/01/13 01:24:11;;;;;;;7.83;5.57;;;1.70;99.90;;;;;;4937559;29;20223;-75
2021/01/13 01:26:46;;;;;;;17.35;7.13;;;1.50;99.90;;;;;;4953809;29;20921;-75
2021/01/13 01:29:13;;;;;;;10.75;6.90;;;1.60;99.90;;;;;;4953401;28;20222;-74
2021/01/13 01:31:39;;;;;;;9.10;6.07;;;1.50;99.90;;;;;;4969664;28;20200;-75
2021/01/13 01:34:07;;;;;;;10.45;5.90;;;1.70;99.90;;;;;;4969785;28;20176;-75
2021/01/13 01:36:33;;;;;;;11.35;6.38;;;1.40;99.90;;;;;;4953895;29;20649;-75
2021/01/13 01:39:02;;;;;;;17.92;7.80;;;0.90;99.90;;;;;;4969584;28;20294;-75
2021/01/13 01:41:31;;;;;;;14.95;6.45;;;1.30;99.90;;;;;;4937911;29;20175;-74
2021/01/13 01:43:57;;;;;;;13.27;6.80;;;1.50;99.90;;;;;;4970003;28;20568;-75
2021/01/13 01:46:29;;;;;;;16.98;7.10;;;1.40;99.90;;;;;;4953502;29;20180;-75
2021/01/13 01:48:59;;;;;;;14.45;6.68;;;1.70;99.90;;;;;;4954606;28;20360;-75
2021/01/13 01:52:00;;;;;;;9.45;7.00;;;1.80;99.90;;;;;;4954737;29;20169;-75
2021/01/13 01:54:26;;;;;;;13.75;7.10;;;1.60;99.90;;;;;;4954894;29;20234;-75
2021/01/13 01:56:55;;;;;;;21.42;7.80;;;1.70;99.90;;;;;;4954872;28;20574;-75
2021/01/13 01:59:51;;;;;;;10.93;7.07;;;1.70;99.90;;;;;;4937632;29;20647;-75
2021/01/13 02:02:25;;;;;;;9.65;6.18;;;1.70;99.90;;;;;;4937452;29;20212;-75
2021/01/13 02:04:58;;;;;;;11.82;6.70;;;1.70;99.90;;;;;;4956093;28;20173;-75
2021/01/13 02:07:32;;;;;;;16.98;6.95;;;1.60;99.90;;;;;;4935241;29;20256;-75
2021/01/13 02:10:01;;;;;;;12.63;7.00;;;1.50;99.90;;;;;;4934293;29;20255;-75
2021/01/13 02:12:30;;;;;;;10.55;6.57;;;1.70;99.90;;;;;;4962629;28;20670;-75
2021/01/13 02:15:00;;;;;;;9.77;6.35;;;1.50;99.90;;;;;;4954834;28;20199;-75
2021/01/13 02:17:43;;;;;;;15.25;7.70;;;1.40;99.90;;;;;;4953170;28;20204;-75
2021/01/13 02:20:14;;;;;;;12.68;5.28;;;1.50;99.90;;;;;;4969555;28;20554;-75
2021/01/13 02:23:04;;;;;;;10.27;5.82;;;1.40;99.90;;;;;;4953153;29;20681;-75
2021/01/13 02:25:54;;;;;;;9.35;6.10;;;1.30;99.90;;;;;;4936956;29;20235;-75
2021/01/13 02:28:23;;;;;;;9.68;5.82;;;1.50;99.90;;;;;;4943242;29;20580;-75
2021/01/13 02:31:03;;;;;;;14.23;6.20;;;1.30;99.90;;;;;;4936610;29;20165;-74
2021/01/13 02:33:37;;;;;;;10.32;6.30;;;1.40;99.90;;;;;;4921693;29;20267;-75
2021/01/13 02:36:16;;;;;;;7.35;5.75;;;1.30;99.90;;;;;;4965995;28;20188;-75
2021/01/13 02:38:44;;;;;;;11.20;5.60;;;1.30;99.90;;;;;;4938501;29;20689;-75
2021/01/13 02:41:17;;;;;;;10.88;5.57;;;1.20;99.90;;;;;;4953234;29;20673;-75
2021/01/13 02:43:59;;;;;;;15.05;7.13;;;0.90;99.90;;;;;;4937651;29;20173;-75
2021/01/13 02:46:36;;;;;;;10.13;6.50;;;1.20;99.90;;;;;;4953180;29;20208;-75
2021/01/13 02:49:03;;;;;;;11.88;7.18;;;1.10;99.90;;;;;;4953036;28;20211;-75
2021/01/13 02:51:35;;;;;;;10.32;5.88;;;1.10;99.90;;;;;;4937145;29;20685;-75
2021/01/13 02:54:24;;;;;;;10.43;5.80;;;1.30;99.90;;;;;;4953367;29;20184;-75
2021/01/13 02:56:54;;;;;;;10.55;6.57;;;1.30;99.90;;;;;;4957250;28;20323;-75
2021/01/13 02:59:22;;;;;;;12.05;7.07;;;1.20;99.90;;;;;;4962726;28;20199;-75
2021/01/13 03:01:49;;;;;;;11.65;5.95;;;0.80;99.90;;;;;;4965806;28;20557;-75
2021/01/13 03:04:19;;;;;;;12.57;6.15;;;1.20;99.90;;;;;;4957244;28;20199;-75
2021/01/13 03:06:46;;;;;;;10.35;6.65;;;0.70;99.90;;;;;;4956480;29;20172;-75
2021/01/13 03:09:14;;;;;;;11.30;6.38;;;1.30;99.90;;;;;;4956259;28;20681;-75
2021/01/13 03:11:42;;;;;;;14.02;7.65;;;1.20;99.90;;;;;;4956005;29;20184;-75
2021/01/13 03:14:16;;;;;;;9.10;6.53;;;1.20;99.90;;;;;;4955818;29;20266;-74
2021/01/13 03:16:56;;;;;;;15.45;7.03;;;1.10;99.90;;;;;;4957034;28;20187;-75
2021/01/13 03:19:50;;;;;;;9.63;6.60;;;1.10;99.90;;;;;;4939714;29;20176;-75
2021/01/13 03:22:39;;;;;;;12.35;6.80;;;1.10;99.90;;;;;;4955693;29;20275;-75
2021/01/13 03:25:09;;;;;;;11.57;6.88;;;1.10;99.90;;;;;;4970425;23;20326;-81
2021/01/13 03:27:43;;;;;;;14.27;7.60;;;1.30;99.90;;;;;;4943206;29;20207;-81
2021/01/13 03:30:13;;;;;;;15.55;8.98;;;0.80;99.90;;;;;;4960339;28;20184;-81
2021/01/13 03:32:58;;;;;;;11.38;6.55;;;1.20;99.90;;;;;;4943660;28;20497;-81
2021/01/13 03:35:36;;;;;;;15.38;7.72;;;1.20;99.90;;;;;;4953080;28;20275;-81
2021/01/13 03:38:12;;;;;;;12.60;7.95;;;1.20;99.90;;;;;;4938662;29;20204;-81
2021/01/13 03:40:45;;;;;;;14.35;9.45;;;1.20;99.90;;;;;;4955591;28;20187;-81
2021/01/13 03:43:24;;;;;;;20.00;10.20;;;1.20;99.90;;;;;;4954148;29;20177;-81
2021/01/13 03:45:56;;;;;;;16.75;10.35;;;0.90;99.90;;;;;;4956353;28;20207;-81
2021/01/13 03:48:47;;;;;;;15.98;9.35;;;1.60;99.90;;;;;;4940093;29;22197;-81
2021/01/13 03:51:27;;;;;;;19.33;11.02;;;1.60;99.90;;;;;;4952717;28;20187;-82
2021/01/13 03:53:59;;;;;;;19.85;10.70;;;1.20;99.90;;;;;;4950244;28;20614;-81
2021/01/13 03:56:51;;;;;;;17.33;11.40;;;1.70;99.90;;;;;;4968445;28;20259;-82
2021/01/13 03:59:29;;;;;;;18.67;10.85;;;1.80;99.90;;;;;;4956044;29;20178;-81
2021/01/13 04:02:01;;;;;;;18.33;12.20;;;1.70;99.90;;;;;;4935839;29;20712;-81
2021/01/13 04:04:43;;;;;;;21.33;11.15;;;1.40;99.90;;;;;;4939945;29;20277;-81
2021/01/13 04:07:16;;;;;;;22.40;12.25;;;1.90;99.90;;;;;;4926904;29;20220;-81
2021/01/13 04:09:51;;;;;;;24.75;11.95;;;2.00;99.90;;;;;;4956841;28;20267;-81
2021/01/13 04:12:21;;;;;;;22.75;12.60;;;2.10;99.90;;;;;;4956490;28;20535;-81
2021/01/13 04:14:50;;;;;;;14.40;10.70;;;2.00;99.90;;;;;;4950645;28;20538;-81
2021/01/13 04:17:18;;;;;;;18.13;10.75;;;2.00;99.90;;;;;;4926258;29;20219;-81
2021/01/13 04:19:46;;;;;;;21.30;12.50;;;2.00;99.90;;;;;;4939444;29;20188;-81
2021/01/13 04:22:14;;;;;;;18.92;11.10;;;2.30;99.90;;;;;;4955161;29;20206;-81
2021/01/13 04:24:49;;;;;;;20.65;12.23;;;2.40;99.90;;;;;;4952433;28;20661;-81
2021/01/13 04:27:17;;;;;;;26.30;13.27;;;2.20;99.90;;;;;;4939651;29;20193;-81
2021/01/13 04:29:49;;;;;;;24.45;13.13;;;2.10;99.90;;;;;;4939194;29;20183;-81
2021/01/13 04:32:22;;;;;;;20.70;12.88;;;2.30;99.90;;;;;;4930407;29;20228;-81
2021/01/13 04:34:50;;;;;;;20.67;12.38;;;2.40;99.90;;;;;;4954879;28;20605;-81
2021/01/13 04:37:22;;;;;;;19.73;12.77;;;2.40;99.90;;;;;;4955046;28;20202;-81
2021/01/13 04:39:48;;;;;;;20.23;11.57;;;2.50;99.90;;;;;;4936870;29;20284;-81
2021/01/13 04:42:31;;;;;;;18.25;11.68;;;2.50;99.90;;;;;;4955817;28;20184;-82
2021/01/13 04:45:06;;;;;;;19.95;11.60;;;2.70;99.90;;;;;;4936284;29;20533;-81
2021/01/13 04:48:11;;;;;;;21.23;12.13;;;2.70;99.90;;;;;;4944646;28;20298;-81
2021/01/13 04:50:48;;;;;;;20.98;12.30;;;2.70;99.90;;;;;;4946634;28;20259;-81
2021/01/13 04:53:21;;;;;;;18.17;11.15;;;2.20;99.90;;;;;;4963344;28;20255;-80
2021/01/13 04:55:54;;;;;;;15.55;9.85;;;2.50;99.90;;;;;;4954642;29;20660;-81
2021/01/13 04:58:44;;;;;;;19.23;11.73;;;2.50;99.90;;;;;;4921406;29;20203;-81
2021/01/13 05:01:48;;;;;;;18.00;10.48;;;2.70;99.90;;;;;;4954467;29;20180;-81
2021/01/13 05:04:51;;;;;;;13.90;9.68;;;2.60;99.90;;;;;;4953923;28;20578;-81
2021/01/13 05:07:38;;;;;;;15.05;9.93;;;2.60;99.90;;;;;;4938725;29;20183;-81
2021/01/13 05:10:10;;;;;;;23.80;11.20;;;2.40;99.90;;;;;;4939125;29;20175;-81
2021/01/13 05:12:55;;;;;;;18.10;10.68;;;2.70;99.90;;;;;;4938051;29;20180;-81
2021/01/13 05:15:26;;;;;;;15.70;11.20;;;2.50;99.90;;;;;;4954401;29;20259;-81
2021/01/13 05:18:01;;;;;;;19.50;9.52;;;2.70;99.90;;;;;;4943390;29;20196;-81
2021/01/13 05:20:32;;;;;;;18.65;11.30;;;2.70;99.90;;;;;;4937792;29;20199;-81
2021/01/13 05:23:04;;;;;;;19.80;11.02;;;2.70;99.90;;;;;;4942199;28;20265;-81
2021/01/13 05:25:51;;;;;;;17.75;10.52;;;2.30;99.90;;;;;;4954357;28;20276;-81
2021/01/13 05:28:23;;;;;;;21.00;11.70;;;2.70;99.90;;;;;;4938033;29;20512;-81
2021/01/13 05:30:55;;;;;;;19.45;10.60;;;2.90;99.90;;;;;;4938518;28;20176;-81
2021/01/13 05:33:29;;;;;;;17.33;11.15;;;2.80;99.90;;;;;;4954565;29;20197;-81
2021/01/13 05:35:58;;;;;;;18.13;10.40;;;2.80;99.90;;;;;;4936095;28;20176;-81
2021/01/13 05:38:42;;;;;;;19.30;11.27;;;2.80;99.90;;;;;;4945041;28;20258;-81
2021/01/13 05:41:14;;;;;;;13.93;10.02;;;2.70;99.90;;;;;;4933645;28;20591;-81
2021/01/13 05:43:49;;;;;;;18.23;11.20;;;2.90;99.90;;;;;;4917839;29;20280;-81
2021/01/13 05:46:20;;;;;;;27.17;12.13;;;2.70;99.90;;;;;;4953929;29;20302;-81
2021/01/13 05:48:53;;;;;;;22.48;11.40;;;2.80;99.90;;;;;;4938966;29;20207;-82
2021/01/13 05:51:33;;;;;;;21.90;12.32;;;2.40;99.90;;;;;;4929123;29;20184;-81
2021/01/13 05:54:05;;;;;;;18.58;11.40;;;2.90;99.90;;;;;;4958640;28;20206;-81
2021/01/13 05:56:41;;;;;;;27.15;11.88;;;3.10;99.90;;;;;;4951498;28;20259;-81
2021/01/13 05:59:15;;;;;;;21.90;13.23;;;3.10;99.90;;;;;;4954689;28;20204;-82
2021/01/13 06:01:56;;;;;;;19.52;13.15;;;3.00;99.90;;;;;;4958222;28;20529;-81
2021/01/13 06:04:25;;;;;;;23.10;14.10;;;3.10;99.90;;;;;;4909430;29;20187;-81
2021/01/13 06:07:05;;;;;;;23.92;14.98;;;3.20;99.90;;;;;;4941756;29;20180;-81
2021/01/13 06:09:52;;;;;;;22.23;14.00;;;2.90;99.90;;;;;;4926752;29;20188;-81
2021/01/13 06:12:19;;;;;;;22.60;13.05;;;2.90;99.90;;;;;;4953310;28;20304;-81
2021/01/13 06:14:53;;;;;;;19.77;13.60;;;2.80;99.90;;;;;;4939661;29;20195;-81
2021/01/13 06:17:27;;;;;;;31.92;14.35;;;2.90;99.90;;;;;;4921559;29;20355;-81
2021/01/13 06:19:58;;;;;;;43.17;14.35;;;2.90;99.90;;;;;;4949591;28;20196;-82
2021/01/13 06:22:35;;;;;;;20.67;14.15;;;2.90;99.90;;;;;;4940110;29;20215;-82
2021/01/13 06:25:07;;;;;;;25.15;13.73;;;2.50;99.90;;;;;;4907625;29;20220;-82
2021/01/13 06:27:58;;;;;;;27.38;14.60;;;2.90;99.90;;;;;;4948226;29;20218;-81
2021/01/13 06:30:29;;;;;;;27.63;15.90;;;2.90;99.90;;;;;;4957109;28;20699;-81
2021/01/13 06:33:07;;;;;;;20.38;13.98;;;3.00;99.90;;;;;;4925655;28;20203;-82
2021/01/13 06:35:45;;;;;;;26.90;14.63;;;2.90;99.90;;;;;;4957280;29;20191;-82
2021/01/13 06:38:46;;;;;;;17.90;13.20;;;3.10;99.90;;;;;;4956540;29;20184;-82
2021/01/13 06:41:17;;;;;;;24.35;12.45;;;3.00;99.90;;;;;;4924889;29;20238;-81
2021/01/13 06:44:07;;;;;;;18.92;12.82;;;3.00;99.90;;;;;;4926955;29;20214;-88
2021/01/13 06:46:35;;;;;;;17.02;11.32;;;3.00;99.90;;;;;;4957691;29;20534;-87
2021/01/13 06:49:11;;;;;;;16.77;12.40;;;3.10;99.90;;;;;;4923057;29;20197;-87
2021/01/13 06:51:42;;;;;;;19.55;12.23;;;2.70;99.90;;;;;;4958126;29;20648;-88
2021/01/13 06:54:13;;;;;;;17.25;11.82;;;2.70;99.90;;;;;;4951317;29;20279;-81
2021/01/13 06:56:56;;;;;;;22.98;11.25;;;2.60;99.90;;;;;;4925126;29;20192;-81
2021/01/13 06:59:26;;;;;;;27.45;12.02;;;2.80;99.90;;;;;;4956724;28;20202;-84
2021/01/13 07:02:01;;;;;;;20.20;10.57;;;2.80;99.90;;;;;;4920957;29;20649;-85
2021/01/13 07:04:28;;;;;;;28.85;12.10;;;2.70;99.90;;;;;;4921846;29;20204;-85
2021/01/13 07:07:12;;;;;;;22.77;11.98;;;2.50;99.90;;;;;;4939646;28;20663;-85
2021/01/13 07:09:44;;;;;;;21.67;11.02;;;2.90;99.90;;;;;;4940993;28;20204;-80
2021/01/13 07:12:20;;;;;;;28.80;11.75;;;2.30;99.90;;;;;;4941813;28;20172;-80
2021/01/13 07:14:49;;;;;;;25.75;11.60;;;2.80;99.90;;;;;;4924031;28;20662;-81
2021/01/13 07:17:23;;;;;;;23.58;11.05;;;2.60;99.90;;;;;;4955198;29;20181;-80
2021/01/13 07:19:54;;;;;;;17.77;10.57;;;2.40;99.90;;;;;;4923608;29;20176;-81
2021/01/13 07:22:28;;;;;;;14.38;10.32;;;2.60;99.90;;;;;;4948056;28;20602;-85
2021/01/13 07:24:55;;;;;;;20.10;11.55;;;2.80;99.90;;;;;;4943512;28;20254;-86
2021/01/13 07:27:23;;;;;;;17.15;12.00;;;2.80;99.90;;;;;;4940653;28;20202;-85
2021/01/13 07:29:57;;;;;;;19.48;11.18;;;2.60;99.90;;;;;;4939795;29;20266;-81
2021/01/13 07:32:41;;;;;;;23.13;12.48;;;2.70;99.90;;;;;;4923460;28;20615;-81
2021/01/13 07:35:15;;;;;;;25.83;12.25;;;2.70;99.90;;;;;;4939131;28;20247;-81
2021/01/13 07:38:06;;;;;;;18.42;12.10;;;2.60;99.90;;;;;;4934690;28;20621;-79
2021/01/13 07:40:38;;;;;;;22.75;11.82;;;2.70;99.90;;;;;;4968691;28;20547;-79
2021/01/13 07:43:08;;;;;;;18.45;11.13;;;2.80;99.90;;;;;;4970077;28;20230;-82
2021/01/13 07:45:54;;;;;;;21.92;13.35;;;2.80;99.90;;;;;;4955679;28;20242;-84
2021/01/13 07:48:25;;;;;;;22.15;10.82;;;2.60;99.90;;;;;;4947723;28;20662;-83
2021/01/13 07:51:10;;;;;;;25.33;11.88;;;2.70;99.90;;;;;;4968709;28;20303;-83
2021/01/13 07:53:39;;;;;;;25.40;11.82;;;2.60;99.90;;;;;;4971350;28;20198;-82
2021/01/13 07:56:12;;;;;;;23.92;12.95;;;2.70;99.90;;;;;;4950407;28;20192;-82
2021/01/13 07:59:08;;;;;;;25.35;11.32;;;2.50;99.90;;;;;;4925681;28;20188;-82
2021/01/13 08:01:57;;;;;;;27.48;13.15;;;2.70;99.90;;;;;;4954710;28;20195;-82
2021/01/13 08:04:51;;;;;;;21.30;11.02;;;2.50;99.90;;;;;;4951162;28;20267;-81
2021/01/13 08:07:42;;;;;;;20.23;11.60;;;2.50;99.90;;;;;;4948814;28;20236;-81
2021/01/13 08:10:13;;;;;;;25.38;11.63;;;2.50;99.90;;;;;;4965793;28;20179;-83
2021/01/13 08:13:12;;;;;;;19.27;11.50;;;2.70;99.90;;;;;;4945950;28;20203;-82
2021/01/13 08:16:06;;;;;;;18.42;11.32;;;2.80;99.90;;;;;;4939742;28;20531;-82
2021/01/13 08:19:06;;;;;;;21.40;13.48;;;2.70;99.90;;;;;;4946168;28;20575;-86
2021/01/13 08:22:07;;;;;;;18.65;11.20;;;2.60;99.90;;;;;;4960515;28;20285;-84
2021/01/13 08:24:43;;;;;;;19.83;12.85;;;2.60;99.90;;;;;;4947829;28;20724;-85
2021/01/13 08:27:12;;;;;;;22.50;12.68;;;2.60;99.90;;;;;;4952189;28;20559;-79
2021/01/13 08:29:58;;;;;;;20.58;12.15;;;2.90;99.90;;;;;;4941884;28;20206;-79
2021/01/13 08:32:39;;;;;;;26.67;13.25;;;2.70;99.90;;;;;;4968987;28;20188;-79
2021/01/13 08:35:06;;;;;;;27.08;14.05;;;2.70;99.90;;;;;;4941834;29;20251;-82
2021/01/13 08:37:38;;;;;;;22.70;14.73;;;2.60;99.90;;;;;;4930902;28;20644;-82
2021/01/13 08:40:29;;;;;;;21.80;13.50;;;2.50;99.90;;;;;;4931511;29;20286;-82
2021/01/13 08:43:11;;;;;;;26.98;14.02;;;2.50;99.90;;;;;;4942087;29;20286;-82
2021/01/13 08:45:51;;;;;;;23.08;15.52;;;2.50;99.90;;;;;;4953177;28;20234;-79
2021/01/13 08:48:26;;;;;;;25.55;14.38;;;2.50;99.90;;;;;;4949069;28;20303;-80
2021/01/13 08:51:06;;;;;;;29.73;14.52;;;2.50;99.90;;;;;;4943015;29;20207;-80
2021/01/13 08:53:38;;;;;;;25.17;15.05;;;2.30;99.90;;;;;;4954766;28;20195;-80
2021/01/13 08:56:06;;;;;;;24.67;16.20;;;2.70;99.90;;;;;;4942090;28;20248;-80
2021/01/13 08:58:55;;;;;;;29.17;14.45;;;2.80;99.90;;;;;;4972015;28;20534;-80
2021/01/13 09:01:36;;;;;;;34.90;16.75;;;2.30;99.90;;;;;;4941568;28;20216;-80
2021/01/13 09:04:13;;;;;;;23.10;15.10;;;2.60;99.90;;;;;;4930516;29;20223;-79
2021/01/13 09:07:01;;;;;;;26.95;15.43;;;2.60;99.90;;;;;;4954765;28;20195;-79
2021/01/13 09:09:33;;;;;;;25.17;14.57;;;2.80;99.90;;;;;;4944795;28;20326;-80
2021/01/13 09:12:31;;;;;;;27.23;16.60;;;2.40;99.90;;;;;;4956639;28;20187;-80
2021/01/13 09:15:07;;;;;;;26.77;15.23;;;3.10;99.90;;;;;;4955569;28;20202;-81
2021/01/13 09:17:43;;;;;;;27.67;15.63;;;3.20;99.90;;;;;;4961181;28;20200;-79
2021/01/13 09:20:12;;;;;;;29.13;16.98;;;3.30;99.90;;;;;;4923748;29;20205;-79
2021/01/13 09:22:41;;;;;;;25.55;16.13;;;3.20;99.90;;;;;;4921135;28;20238;-82
2021/01/13 09:25:16;;;;;;;20.73;15.40;;;3.30;99.90;;;;;;4962169;28;20677;-84
2021/01/13 09:27:51;;;;;;;33.03;16.98;;;3.40;99.90;;;;;;4963388;28;20280;-80
2021/01/13 09:30:33;;;;;;;27.85;17.60;;;3.50;99.90;;;;;;4948653;28;20266;-81
2021/01/13 09:33:07;;;;;;;20.35;14.70;;;3.60;99.90;;;;;;4925532;29;20202;-81
2021/01/13 09:35:43;;;;;;;24.27;15.88;;;3.60;99.90;;;;;;4957179;28;20188;-80
2021/01/13 09:38:25;;;;;;;30.88;17.45;;;3.40;99.90;;;;;;4955108;28;20532;-80
2021/01/13 09:41:04;;;;;;;28.42;15.32;;;3.40;99.90;;;;;;4923883;28;20204;-83
2021/01/13 09:43:40;;;;;;;22.60;14.73;;;3.60;99.90;;;;;;4926746;28;20198;-82
2021/01/13 09:46:31;;;;;;;26.60;15.65;;;3.60;99.90;;;;;;4960444;28;20254;-81
2021/01/13 09:49:01;;;;;;;22.95;15.75;;;3.60;99.90;;;;;;4951915;28;20222;-80
2021/01/13 09:51:33;;;;;;;24.15;15.90;;;3.60;99.90;;;;;;4952558;28;20520;-79
2021/01/13 09:54:08;;;;;;;25.17;14.80;;;3.70;99.90;;;;;;4958083;28;20188;-79
2021/01/13 09:56:36;;;;;;;21.80;14.05;;;3.60;99.90;;;;;;4956168;28;20208;-80
2021/01/13 09:59:06;;;;;;;23.70;14.88;;;3.30;99.90;;;;;;4965563;28;20203;-80
2021/01/13 10:01:39;;;;;;;32.15;15.90;;;3.80;99.90;;;;;;4958671;28;20200;-80
2021/01/13 10:04:12;;;;;;;27.52;15.60;;;3.70;99.90;;;;;;4954309;28;20271;-82
2021/01/13 10:06:42;;;;;;;27.45;16.08;;;3.80;99.90;;;;;;4956504;28;20229;-81
2021/01/13 10:09:15;;;;;;;30.58;16.80;;;3.70;99.90;;;;;;4955519;28;20286;-81
2021/01/13 10:11:42;;;;;;;24.10;15.45;;;3.70;99.90;;;;;;4938339;28;20294;-80
2021/01/13 10:14:15;;;;;;;26.80;17.17;;;3.50;99.90;;;;;;4946047;28;20585;-80
2021/01/13 10:16:44;;;;;;;27.92;16.90;;;4.00;99.90;;;;;;4958751;28;20187;-80
2021/01/13 10:19:14;;;;;;;25.88;16.45;;;3.80;99.90;;;;;;4966921;28;20219;-79
2021/01/13 10:21:48;;;;;;;30.08;17.55;;;3.90;99.90;;;;;;4948090;29;20238;-82
2021/01/13 10:24:20;;;;;;;24.13;16.08;;;3.90;99.90;;;;;;4947944;28;20314;-82
2021/01/13 10:26:48;;;;;;;30.85;17.77;;;3.90;99.90;;;;;;4958100;28;20644;-81
2021/01/13 10:29:24;;;;;;;37.63;18.63;;;4.00;99.90;;;;;;4970094;28;20307;-81
2021/01/13 10:31:58;;;;;;;27.67;17.35;;;4.20;99.90;;;;;;4950212;28;20205;-80
2021/01/13 10:34:24;;;;;;;23.77;15.35;;;4.10;99.90;;;;;;4953869;28;20187;-81
2021/01/13 10:36:55;;;;;;;32.33;15.65;;;4.10;99.90;;;;;;4945240;28;20208;-81
2021/01/13 10:39:27;;;;;;;29.80;16.30;;;4.10;99.90;;;;;;4964578;28;20197;-81
2021/01/13 10:42:10;;;;;;;24.05;15.85;;;4.20;99.90;;;;;;4926234;28;20184;-80
2021/01/13 10:44:43;;;;;;;26.30;16.27;;;4.00;99.90;;;;;;4924401;28;20277;-80
2021/01/13 10:47:13;;;;;;;26.40;17.80;;;4.00;99.90;;;;;;4961122;28;20237;-79
2021/01/13 10:49:46;;;;;;;25.58;15.75;;;4.30;99.90;;;;;;4972096;28;20226;-79
2021/01/13 10:52:17;;;;;;;25.30;16.20;;;4.20;99.90;;;;;;4953059;28;20190;-81
2021/01/13 10:54:47;;;;;;;31.63;17.58;;;4.10;99.90;;;;;;4950685;28;20212;-79
2021/01/13 10:57:17;;;;;;;26.02;17.00;;;4.20;99.90;;;;;;4923474;28;20188;-81
2021/01/13 10:59:49;;;;;;;30.55;17.38;;;4.30;99.90;;;;;;4947268;28;20229;-80
2021/01/13 11:02:22;;;;;;;28.80;17.50;;;4.30;99.90;;;;;;4950356;28;20213;-80
2021/01/13 11:05:00;;;;;;;25.55;16.50;;;4.40;99.90;;;;;;4953206;28;20252;-81
2021/01/13 11:07:40;;;;;;;29.42;16.75;;;4.50;99.90;;;;;;4924577;28;20191;-80
2021/01/13 11:10:10;;;;;;;27.95;17.42;;;4.50;99.90;;;;;;4951779;28;20241;-80
2021/01/13 11:12:37;;;;;;;24.75;16.80;;;4.50;99.90;;;;;;4936928;28;20538;-80
2021/01/13 11:15:08;;;;;;;23.95;16.33;;;4.50;99.90;;;;;;4939265;28;20259;-80
2021/01/13 11:17:35;;;;;;;27.15;16.30;;;4.40;99.90;;;;;;4933052;28;20183;-80
2021/01/13 11:20:08;;;;;;;32.75;16.80;;;4.40;99.90;;;;;;4925948;28;20195;-80
2021/01/13 11:22:52;;;;;;;26.00;16.65;;;4.40;99.90;;;;;;4941482;28;20536;-80
2021/01/13 11:25:23;;;;;;;27.17;16.67;;;4.70;99.90;;;;;;4941734;28;20244;-80
2021/01/13 11:28:00;;;;;;;26.55;17.30;;;4.50;99.90;;;;;;4960357;28;20250;-80
2021/01/13 11:30:29;;;;;;;26.10;15.95;;;4.80;99.90;;;;;;4937110;28;20203;-80
2021/01/13 11:32:57;;;;;;;26.40;14.73;;;4.70;99.90;;;;;;4954883;28;20188;-80
2021/01/13 11:35:33;;;;;;;21.48;15.10;;;4.70;99.90;;;;;;4927076;28;20188;-79
2021/01/13 11:38:25;;;;;;;25.58;15.95;;;4.70;99.90;;;;;;4948747;28;20298;-83
2021/01/13 11:41:13;;;;;;;23.63;14.63;;;4.90;99.90;;;;;;4946854;28;20195;-84
2021/01/13 11:44:17;;;;;;;23.55;14.52;;;5.00;99.90;;;;;;4954474;28;20206;-82
2021/01/13 11:46:58;;;;;;;24.17;16.00;;;4.80;99.90;;;;;;4955083;28;20199;-85
2021/01/13 11:49:34;;;;;;;21.05;14.20;;;4.80;99.90;;;;;;4954822;28;20243;-84
2021/01/13 11:52:07;;;;;;;22.08;14.10;;;4.90;99.90;;;;;;4958588;28;20198;-82
2021/01/13 11:54:33;;;;;;;19.88;13.65;;;5.00;99.90;;;;;;4953177;28;20291;-82
2021/01/13 11:57:23;;;;;;;18.77;12.52;;;4.70;99.90;;;;;;4969750;28;20192;-81
2021/01/13 11:59:51;;;;;;;15.38;11.38;;;5.00;99.90;;;;;;4960137;28;20278;-82
2021/01/13 12:02:23;;;;;;;14.90;10.90;;;5.00;99.90;;;;;;4949579;28;20268;-85
2021/01/13 12:04:52;;;;;;;21.15;12.32;;;5.00;99.90;;;;;;4963811;28;20210;-81
2021/01/13 12:07:19;;;;;;;16.70;12.35;;;5.00;99.90;;;;;;4956034;28;20223;-82
2021/01/13 12:10:11;;;;;;;18.60;11.57;;;5.10;99.90;;;;;;4956584;28;20186;-82
2021/01/13 12:12:40;;;;;;;19.60;11.80;;;5.30;99.90;;;;;;4949274;28;20637;-80
2021/01/13 12:15:12;;;;;;;16.38;10.88;;;5.20;99.90;;;;;;4977600;28;20180;-80
2021/01/13 12:17:53;;;;;;;15.57;10.13;;;5.30;99.90;;;;;;4975276;28;20184;-82
2021/01/13 12:20:34;;;;;;;19.67;11.05;;;5.30;99.90;;;;;;4956516;28;20184;-82
2021/01/13 12:23:40;;;;;;;20.08;11.48;;;5.30;99.90;;;;;;4957974;28;20655;-80
2021/01/13 12:26:23;;;;;;;14.38;9.40;;;5.30;99.90;;;;;;4957735;28;20674;-82
2021/01/13 12:28:55;;;;;;;18.90;11.25;;;5.30;99.90;;;;;;4956614;28;20846;-82
2021/01/13 12:31:22;;;;;;;19.42;11.32;;;5.30;99.90;;;;;;4955687;28;20176;-84
2021/01/13 12:33:51;;;;;;;14.95;10.15;;;5.30;99.90;;;;;;4958385;28;20232;-84
2021/01/13 12:36:20;;;;;;;15.75;11.25;;;5.40;99.90;;;;;;4976986;28;20197;-82
2021/01/13 12:38:47;;;;;;;14.07;10.18;;;5.40;99.90;;;;;;4922250;28;20188;-83
2021/01/13 12:41:27;;;;;;;12.60;9.73;;;5.50;99.90;;;;;;4962680;28;20200;-83
2021/01/13 12:43:55;;;;;;;16.75;10.40;;;5.60;99.90;;;;;;4956129;28;20196;-84
2021/01/13 12:46:35;;;;;;;15.45;10.00;;;5.60;99.90;;;;;;4935392;29;20195;-83
2021/01/13 12:49:04;;;;;;;21.67;10.70;;;5.60;99.90;;;;;;4962772;28;20234;-80
2021/01/13 12:51:31;;;;;;;14.88;10.75;;;5.50;99.90;;;;;;4963304;28;20187;-80
2021/01/13 12:54:00;;;;;;;14.18;10.35;;;5.20;99.90;;;;;;4956234;28;20701;-80
2021/01/13 12:56:27;;;;;;;14.68;10.57;;;5.50;99.90;;;;;;4963609;28;20179;-80
2021/01/13 12:58:54;;;;;;;16.50;9.32;;;5.60;99.90;;;;;;4973242;28;20215;-81
2021/01/13 13:01:21;;;;;;;14.75;9.52;;;5.60;99.90;;;;;;4965862;28;20184;-80
2021/01/13 13:03:53;;;;;;;15.85;9.77;;;5.80;99.90;;;;;;4924494;28;20211;-82
2021/01/13 13:06:24;;;;;;;17.67;10.35;;;5.80;99.90;;;;;;4932512;29;20196;-82
2021/01/13 13:09:15;;;;;;;14.43;9.52;;;5.80;99.90;;;;;;4923859;28;20211;-80
2021/01/13 13:11:42;;;;;;;22.23;9.88;;;5.80;99.90;;;;;;4951680;28;20611;-81
2021/01/13 13:14:12;;;;;;;15.82;9.68;;;5.90;99.90;;;;;;4924860;28;20187;-83
2021/01/13 13:16:39;;;;;;;16.27;9.18;;;6.00;99.90;;;;;;4924239;28;20638;-85
2021/01/13 13:19:08;;;;;;;16.55;10.40;;;6.00;99.90;;;;;;4944170;28;20187;-84